Time;durP1;ratioP1;P1;durP2;ratioP2;P2;SDS_P1;SDS_P2;PMS_P1;PMS_P2;Temp;Humidity;BMP_temperature;BMP_pressure;BME280_temperature;BME280_humidity;BME280_pressure;Samples;Min_cycle;Max_cycle;Signal;HPM_P1;HPM_P2
2022/11/18 00:01:17;;;;;;;18.53;16.53;;;;;;;-148.82;100.00;60434.72;4961396;28;20634;-69
2022/11/18 00:03:47;;;;;;;19.67;17.77;;;;;;;-148.82;100.00;60434.72;5007856;28;20221;-70
2022/11/18 00:06:16;;;;;;;18.83;16.73;;;;;;;-148.82;100.00;60434.72;5008866;28;20613;-68
2022/11/18 00:08:45;;;;;;;18.93;16.93;;;;;;;-148.82;100.00;60434.72;4985671;28;20213;-68
2022/11/18 00:14:17;;;;;;;18.77;16.87;;;;;;;-148.82;100.00;60434.72;5010313;28;20214;-69
2022/11/18 00:14:17;;;;;;;21.97;18.40;;;;;;;-148.82;100.00;60434.72;5007621;28;20378;-69
2022/11/18 00:16:46;;;;;;;21.90;19.63;;;;;;;-148.82;100.00;60434.72;4962348;28;20317;-69
2022/11/18 00:19:16;;;;;;;24.07;19.37;;;;;;;-148.82;100.00;60434.72;5007726;28;20209;-67
2022/11/18 00:21:45;;;;;;;23.53;18.53;;;;;;;-148.82;100.00;60434.72;5008663;28;20511;-68
2022/11/18 00:24:13;;;;;;;22.63;19.53;;;;;;;-148.82;100.00;60434.72;4982369;28;20215;-68
2022/11/18 00:26:42;;;;;;;23.53;19.63;;;;;;;-148.82;100.00;60434.72;5007983;28;20207;-68
2022/11/18 00:29:10;;;;;;;28.03;21.77;;;;;;;-148.82;100.00;60434.72;5008399;28;20394;-68
2022/11/18 00:31:39;;;;;;;23.97;20.47;;;;;;;-148.82;100.00;60434.72;4958270;28;20288;-69
2022/11/18 00:34:07;;;;;;;23.30;19.60;;;;;;;-148.82;100.00;60434.72;5007415;28;20404;-67
2022/11/18 00:36:37;;;;;;;23.00;18.57;;;;;;;-148.82;100.00;60434.72;5010915;28;20242;-68
2022/11/18 00:39:05;;;;;;;21.93;18.27;;;;;;;-148.82;100.00;60434.72;4979750;28;20267;-66
2022/11/18 00:44:16;;;;;;;28.77;20.17;;;;;;;-148.82;100.00;60434.72;5007334;28;20203;-70
2022/11/18 00:46:44;;;;;;;23.50;20.20;;;;;;;-148.82;100.00;60434.72;4962466;28;20395;-68
2022/11/18 00:49:12;;;;;;;30.27;21.30;;;;;;;-148.82;100.00;60434.72;5007744;28;20408;-68
2022/11/18 00:51:42;;;;;;;27.77;21.07;;;;;;;-148.82;100.00;60434.72;5009832;28;20307;-68
2022/11/18 00:54:11;;;;;;;25.13;20.90;;;;;;;-148.82;100.00;60434.72;4981008;28;20320;-68
2022/11/18 00:56:39;;;;;;;25.20;19.83;;;;;;;-148.82;100.00;60434.72;5010560;28;20495;-68
2022/11/18 00:59:07;;;;;;;22.20;19.23;;;;;;;-148.82;100.00;60434.72;5008146;28;20992;-68
2022/11/18 01:01:36;;;;;;;23.50;18.33;;;;;;;-148.82;100.00;60434.72;5009765;28;20227;-68
2022/11/18 01:04:05;;;;;;;21.87;18.57;;;;;;;-148.82;100.00;60434.72;4969620;28;20435;-67
2022/11/18 01:06:33;;;;;;;28.30;19.40;;;;;;;-148.82;100.00;60434.72;5011190;28;20876;-68
2022/11/18 01:09:02;;;;;;;24.77;18.20;;;;;;;-148.82;100.00;60434.72;5006754;28;20199;-71
2022/11/18 01:14:16;;;;;;;22.03;19.13;;;;;;;-148.82;100.00;60434.72;5010509;28;20213;-68
2022/11/18 01:16:49;;;;;;;24.67;19.03;;;;;;;-148.82;100.00;60434.72;5007794;28;20204;-68
2022/11/18 01:19:18;;;;;;;22.77;19.17;;;;;;;-148.82;100.00;60434.72;4959050;28;20218;-66
2022/11/18 01:21:47;;;;;;;23.37;19.53;;;;;;;-148.82;100.00;60434.72;5007301;28;20601;-69
2022/11/18 01:24:16;;;;;;;25.97;21.10;;;;;;;-148.82;100.00;60434.72;5009812;28;20207;-68
2022/11/18 01:26:45;;;;;;;23.87;21.13;;;;;;;-148.82;100.00;60434.72;4983884;28;20605;-69
2022/11/18 01:29:13;;;;;;;32.70;20.00;;;;;;;-148.82;100.00;60434.72;5007024;28;20404;-68
2022/11/18 01:31:42;;;;;;;27.97;18.63;;;;;;;-148.82;100.00;60434.72;5009551;28;20345;-69
2022/11/18 01:34:30;;;;;;;26.23;20.30;;;;;;;-148.82;100.00;60434.72;4960163;28;20723;-70
2022/11/18 01:36:58;;;;;;;28.23;20.77;;;;;;;-148.82;100.00;60434.72;4951499;28;20529;-65
2022/11/18 01:39:28;;;;;;;27.50;20.40;;;;;;;-148.82;100.00;60434.72;4992514;28;20329;-68
2022/11/18 01:41:56;;;;;;;28.77;19.77;;;;;;;-148.82;100.00;60434.72;5008258;28;20227;-68
2022/11/18 01:45:01;;;;;;;27.03;20.57;;;;;;;-148.82;100.00;60434.72;5006597;28;20217;-68
2022/11/18 01:47:32;;;;;;;24.80;19.37;;;;;;;-148.82;100.00;60434.72;4997205;28;21082;-69
2022/11/18 01:50:02;;;;;;;27.37;21.33;;;;;;;-148.82;100.00;60434.72;5004521;28;20596;-68
2022/11/18 01:52:32;;;;;;;25.27;19.93;;;;;;;-148.82;100.00;60434.72;4958438;28;21719;-69
2022/11/18 01:55:06;;;;;;;28.80;22.17;;;;;;;-148.82;100.00;60434.72;5006805;28;20229;-69
2022/11/18 01:57:34;;;;;;;26.77;20.47;;;;;;;-148.82;100.00;60434.72;5008748;28;20650;-68
2022/11/18 02:00:06;;;;;;;25.07;19.83;;;;;;;-148.82;100.00;60434.72;4996448;28;20214;-66
2022/11/18 02:02:37;;;;;;;28.50;21.03;;;;;;;-148.82;100.00;60434.72;5004493;28;20219;-68
2022/11/18 02:05:08;;;;;;;30.60;21.37;;;;;;;-148.82;100.00;60434.72;5006695;28;20199;-67
2022/11/18 02:07:38;;;;;;;31.73;22.40;;;;;;;-148.82;100.00;60434.72;5008494;28;21391;-69
2022/11/18 02:10:09;;;;;;;26.90;20.97;;;;;;;-148.82;100.00;60434.72;4958143;28;20873;-67
2022/11/18 02:12:37;;;;;;;32.33;21.73;;;;;;;-148.82;100.00;60434.72;5008374;28;20589;-67
2022/11/18 02:15:07;;;;;;;32.37;21.43;;;;;;;-148.82;100.00;60434.72;4991534;28;20195;-69
2022/11/18 02:17:44;;;;;;;28.77;21.17;;;;;;;-148.82;100.00;60434.72;5006127;28;20257;-69
2022/11/18 02:20:34;;;;;;;28.23;20.97;;;;;;;-148.82;100.00;60434.72;5005518;28;20230;-67
2022/11/18 02:23:42;;;;;;;31.07;20.90;;;;;;;-148.82;100.00;60434.72;4982644;28;20422;-67
2022/11/18 02:26:34;;;;;;;29.37;20.90;;;;;;;-148.82;100.00;60434.72;5003896;28;20306;-67
2022/11/18 02:29:08;;;;;;;27.83;20.83;;;;;;;-148.82;100.00;60434.72;5007013;28;20438;-68
2022/11/18 02:31:41;;;;;;;26.17;19.90;;;;;;;-148.82;100.00;60434.72;4983089;28;21325;-69
2022/11/18 02:34:16;;;;;;;29.13;19.83;;;;;;;-148.82;100.00;60434.72;5005530;28;20293;-67
2022/11/18 02:36:49;;;;;;;29.33;20.67;;;;;;;-148.82;100.00;60434.72;5009297;28;20255;-66
2022/11/18 02:39:22;;;;;;;30.83;20.80;;;;;;;-148.82;100.00;60434.72;4953391;28;20395;-70
2022/11/18 02:41:51;;;;;;;28.93;21.80;;;;;;;-148.82;100.00;60434.72;5007137;28;20473;-68
2022/11/18 02:44:22;;;;;;;26.10;20.30;;;;;;;-148.82;100.00;60434.72;5004097;28;20882;-67
2022/11/18 02:46:54;;;;;;;31.33;21.47;;;;;;;-148.82;100.00;60434.72;4982474;28;20700;-69
2022/11/18 02:49:31;;;;;;;35.17;20.43;;;;;;;-148.82;100.00;60434.72;5004587;28;20304;-68
2022/11/18 02:52:00;;;;;;;31.97;21.93;;;;;;;-148.82;100.00;60434.72;5008138;28;20226;-68
2022/11/18 02:54:29;;;;;;;29.97;20.77;;;;;;;-148.82;100.00;60434.72;4958322;28;20600;-68
2022/11/18 02:56:58;;;;;;;32.17;22.17;;;;;;;-148.82;100.00;60434.72;5006687;28;21724;-69
2022/11/18 02:59:29;;;;;;;29.57;21.30;;;;;;;-148.82;100.00;60434.72;5005785;28;20195;-68
2022/11/18 03:01:57;;;;;;;30.07;21.23;;;;;;;-148.82;100.00;60434.72;4983430;28;20226;-68
2022/11/18 03:04:26;;;;;;;28.83;21.97;;;;;;;-148.82;100.00;60434.72;5004686;28;20277;-68
2022/11/18 03:07:04;;;;;;;36.07;23.63;;;;;;;-148.82;100.00;60434.72;5009826;28;20296;-68
2022/11/18 03:09:35;;;;;;;30.87;24.27;;;;;;;-148.82;100.00;60434.72;5005210;28;20337;-67
2022/11/18 03:12:11;;;;;;;30.73;22.13;;;;;;;-148.82;100.00;60434.72;4956469;28;20714;-68
2022/11/18 03:14:45;;;;;;;31.17;22.27;;;;;;;-148.82;100.00;60434.72;5007346;28;20214;-69
2022/11/18 03:17:20;;;;;;;28.33;21.23;;;;;;;-148.82;100.00;60434.72;4979212;28;20466;-67
2022/11/18 03:19:57;;;;;;;32.03;21.50;;;;;;;-148.82;100.00;60434.72;5008763;28;20206;-67
2022/11/18 03:22:28;;;;;;;34.97;21.83;;;;;;;-148.82;100.00;60434.72;4990119;28;20525;-68
2022/11/18 03:25:03;;;;;;;31.20;23.03;;;;;;;-148.82;100.00;60434.72;4994175;28;20603;-67
2022/11/18 03:27:34;;;;;;;33.60;23.93;;;;;;;-148.82;100.00;60434.72;4991239;28;20402;-67
2022/11/18 03:30:07;;;;;;;36.50;23.60;;;;;;;-148.82;100.00;60434.72;5006960;28;20203;-67
2022/11/18 03:32:38;;;;;;;35.10;24.63;;;;;;;-148.82;100.00;60434.72;5007678;28;20325;-68
2022/11/18 03:35:08;;;;;;;36.83;24.03;;;;;;;-148.82;100.00;60434.72;4981375;28;20222;-68
2022/11/18 03:37:38;;;;;;;39.03;24.43;;;;;;;-148.82;100.00;60434.72;5005248;28;21679;-70
2022/11/18 03:40:13;;;;;;;39.67;25.00;;;;;;;-148.82;100.00;60434.72;5005061;28;20293;-67
2022/11/18 03:42:44;;;;;;;35.73;24.03;;;;;;;-148.82;100.00;60434.72;4955783;28;20430;-67
2022/11/18 03:45:17;;;;;;;34.20;24.13;;;;;;;-148.82;100.00;60434.72;4926088;28;20214;-68
2022/11/18 03:47:50;;;;;;;33.93;24.07;;;;;;;-148.82;100.00;60434.72;4994503;28;21079;-68
2022/11/18 03:50:21;;;;;;;34.10;23.63;;;;;;;-148.82;100.00;60434.72;4979189;28;20223;-67
2022/11/18 03:52:51;;;;;;;35.93;23.97;;;;;;;-148.82;100.00;60434.72;5007147;28;20647;-68
2022/11/18 03:55:22;;;;;;;35.77;23.77;;;;;;;-148.82;100.00;60434.72;4977094;28;20203;-66
2022/11/18 03:57:53;;;;;;;34.87;24.87;;;;;;;-148.82;100.00;60434.72;5007518;28;20369;-68
2022/11/18 04:00:23;;;;;;;37.67;24.83;;;;;;;-148.82;100.00;60434.72;4956611;28;20232;-67
2022/11/18 04:02:52;;;;;;;36.13;23.80;;;;;;;-148.82;100.00;60434.72;5011702;28;20258;-67
2022/11/18 04:05:21;;;;;;;36.53;25.70;;;;;;;-148.82;100.00;60434.72;4996705;28;20586;-67
2022/11/18 04:07:55;;;;;;;30.57;22.83;;;;;;;-148.82;100.00;60434.72;4974901;28;20239;-68
2022/11/18 04:10:26;;;;;;;30.63;24.33;;;;;;;-148.82;100.00;60434.72;4982078;28;20511;-68
2022/11/18 04:13:00;;;;;;;33.33;23.87;;;;;;;-148.82;100.00;60434.72;5011678;28;20207;-68
2022/11/18 04:15:37;;;;;;;38.37;25.10;;;;;;;-148.82;100.00;60434.72;4958843;28;20309;-67
2022/11/18 04:18:06;;;;;;;30.83;21.87;;;;;;;-148.82;100.00;60434.72;5010671;28;20535;-66
2022/11/18 04:20:36;;;;;;;29.20;22.37;;;;;;;-148.82;100.00;60434.72;5008190;28;21729;-67
2022/11/18 04:23:05;;;;;;;33.50;22.80;;;;;;;-148.82;100.00;60434.72;4984627;28;22203;-66
2022/11/18 04:25:33;;;;;;;33.53;23.73;;;;;;;-148.82;100.00;60434.72;4977812;28;20411;-65
2022/11/18 04:28:01;;;;;;;32.23;22.03;;;;;;;-148.82;100.00;60434.72;5008528;28;20203;-67
2022/11/18 04:30:30;;;;;;;32.27;22.27;;;;;;;-148.82;100.00;60434.72;4954780;28;20226;-67
2022/11/18 04:32:59;;;;;;;31.20;22.27;;;;;;;-148.82;100.00;60434.72;5008954;28;20653;-67
2022/11/18 04:35:28;;;;;;;30.00;22.37;;;;;;;-148.82;100.00;60434.72;5006408;28;20325;-67
2022/11/18 04:37:56;;;;;;;37.03;22.30;;;;;;;-148.82;100.00;60434.72;4985523;28;20361;-66
2022/11/18 04:40:24;;;;;;;31.53;22.20;;;;;;;-148.82;100.00;60434.72;4971070;28;20303;-66
2022/11/18 04:42:53;;;;;;;36.40;23.23;;;;;;;-148.82;100.00;60434.72;4988018;28;21138;-66
2022/11/18 04:45:21;;;;;;;38.03;23.70;;;;;;;-148.82;100.00;60434.72;4959207;28;20402;-67
2022/11/18 04:47:49;;;;;;;31.77;22.70;;;;;;;-148.82;100.00;60434.72;5007628;28;20230;-68
2022/11/18 04:50:19;;;;;;;35.97;23.57;;;;;;;-148.82;100.00;60434.72;5009677;28;20347;-68
2022/11/18 04:52:47;;;;;;;33.27;23.47;;;;;;;-148.82;100.00;60434.72;4980112;28;21414;-66
2022/11/18 04:55:16;;;;;;;33.93;21.83;;;;;;;-148.82;100.00;60434.72;5009776;28;20414;-68
2022/11/18 04:57:44;;;;;;;31.83;22.90;;;;;;;-148.82;100.00;60434.72;4983039;28;20304;-67
2022/11/18 05:00:12;;;;;;;33.53;22.03;;;;;;;-148.82;100.00;60434.72;5011788;28;20602;-67
2022/11/18 05:02:41;;;;;;;30.70;20.93;;;;;;;-148.82;100.00;60434.72;4958111;28;20681;-66
2022/11/18 05:05:09;;;;;;;34.30;22.70;;;;;;;-148.82;100.00;60434.72;5011512;28;20230;-66
2022/11/18 05:07:39;;;;;;;31.37;22.33;;;;;;;-148.82;100.00;60434.72;4979230;28;20405;-64
2022/11/18 05:10:08;;;;;;;34.03;22.53;;;;;;;-148.82;100.00;60434.72;4984226;28;20614;-68
2022/11/18 05:12:48;;;;;;;31.67;23.00;;;;;;;-148.82;100.00;60434.72;4978107;28;20214;-65
2022/11/18 05:15:17;;;;;;;33.40;24.43;;;;;;;-148.82;100.00;60434.72;5010271;28;20786;-68
2022/11/18 05:17:45;;;;;;;36.53;23.50;;;;;;;-148.82;100.00;60434.72;4925000;28;20487;-67
2022/11/18 05:20:13;;;;;;;35.10;23.30;;;;;;;-148.82;100.00;60434.72;5007178;28;21579;-69
2022/11/18 05:22:43;;;;;;;35.57;22.33;;;;;;;-148.82;100.00;60434.72;4976059;28;20203;-67
2022/11/18 05:25:11;;;;;;;32.57;23.17;;;;;;;-148.82;100.00;60434.72;4979195;28;20919;-66
2022/11/18 05:27:39;;;;;;;29.77;23.33;;;;;;;-148.82;100.00;60434.72;4979463;28;20526;-65
2022/11/18 05:30:09;;;;;;;35.70;22.93;;;;;;;-148.82;100.00;60434.72;4978991;28;20257;-66
2022/11/18 05:32:37;;;;;;;33.30;22.83;;;;;;;-148.82;100.00;60434.72;4951943;28;20342;-69
2022/11/18 05:35:06;;;;;;;31.87;23.83;;;;;;;-148.82;100.00;60434.72;5006548;28;20658;-68
2022/11/18 05:37:34;;;;;;;31.20;22.60;;;;;;;-148.82;100.00;60434.72;5006562;28;20827;-67
2022/11/18 05:40:08;;;;;;;29.47;21.60;;;;;;;-148.82;100.00;60434.72;4982062;28;20217;-65
2022/11/18 05:45:22;;;;;;;31.67;21.90;;;;;;;-148.82;100.00;60434.72;5004179;28;20227;-67
2022/11/18 05:47:59;;;;;;;32.93;23.17;;;;;;;-148.82;100.00;60434.72;4958117;28;20214;-66
2022/11/18 05:50:30;;;;;;;35.67;24.33;;;;;;;-148.82;100.00;60434.72;4978455;28;22376;-66
2022/11/18 05:52:59;;;;;;;32.53;22.03;;;;;;;-148.82;100.00;60434.72;4988671;28;20345;-69
2022/11/18 05:55:30;;;;;;;33.30;22.57;;;;;;;-148.82;100.00;60434.72;5007580;28;20399;-70
2022/11/18 05:57:58;;;;;;;35.10;23.00;;;;;;;-148.82;100.00;60434.72;5008974;28;21050;-69
2022/11/18 06:00:27;;;;;;;31.57;23.77;;;;;;;-148.82;100.00;60434.72;4985553;28;20345;-68
2022/11/18 06:02:55;;;;;;;31.90;21.90;;;;;;;-148.82;100.00;60434.72;5006569;28;20425;-69
2022/11/18 06:05:25;;;;;;;32.97;22.57;;;;;;;-148.82;100.00;60434.72;4966951;28;20219;-66
2022/11/18 06:07:54;;;;;;;35.27;22.53;;;;;;;-148.82;100.00;60434.72;4987203;28;20329;-68
2022/11/18 06:10:25;;;;;;;33.67;22.70;;;;;;;-148.82;100.00;60434.72;4983973;28;21038;-65
2022/11/18 06:12:58;;;;;;;34.90;22.07;;;;;;;-148.82;100.00;60434.72;5008188;28;20868;-67
2022/11/18 06:15:28;;;;;;;33.30;22.17;;;;;;;-148.82;100.00;60434.72;5004286;28;20381;-65
2022/11/18 06:17:59;;;;;;;44.92;29.90;;;;;;;-148.82;100.00;60434.72;5006778;28;20965;-69
2022/11/18 06:20:28;;;;;;;40.55;28.15;;;;;;;-148.82;100.00;60434.72;4977167;28;20705;-68
2022/11/18 06:22:56;;;;;;;32.47;24.00;;;;;;;-148.82;100.00;60434.72;4958138;28;20754;-69
2022/11/18 06:25:25;;;;;;;31.93;21.37;;;;;;;-148.82;100.00;60434.72;5002100;28;20822;-68
2022/11/18 06:27:56;;;;;;;45.77;31.77;;;;;;;-148.82;100.00;60434.72;5006506;28;20510;-68
2022/11/18 06:30:25;;;;;;;30.37;23.93;;;;;;;-148.82;100.00;60434.72;5004272;28;20330;-67
2022/11/18 06:32:53;;;;;;;30.77;22.07;;;;;;;-148.82;100.00;60434.72;5007516;28;20207;-67
2022/11/18 06:35:21;;;;;;;29.10;22.00;;;;;;;-148.82;100.00;60434.72;5004232;28;20199;-65
2022/11/18 06:37:49;;;;;;;31.97;21.20;;;;;;;-148.82;100.00;60434.72;4930447;28;20227;-67
2022/11/18 06:40:18;;;;;;;32.23;20.67;;;;;;;-148.82;100.00;60434.72;5003895;28;20233;-68
2022/11/18 06:45:33;;;;;;;30.80;20.20;;;;;;;-148.82;100.00;60434.72;5003770;28;20223;-67
2022/11/18 06:48:03;;;;;;;30.17;21.20;;;;;;;-148.82;100.00;60434.72;5009076;28;20207;-69
2022/11/18 06:50:31;;;;;;;28.70;20.53;;;;;;;-148.82;100.00;60434.72;5004368;28;20409;-67
2022/11/18 06:53:00;;;;;;;30.03;20.53;;;;;;;-148.82;100.00;60434.72;4927316;28;20215;-68
2022/11/18 06:55:28;;;;;;;30.13;21.97;;;;;;;-148.82;100.00;60434.72;5003478;28;20720;-68
2022/11/18 06:57:57;;;;;;;29.60;22.40;;;;;;;-148.82;100.00;60434.72;5006451;28;20344;-67
2022/11/18 07:00:25;;;;;;;32.40;22.47;;;;;;;-148.82;100.00;60434.72;5004913;28;20230;-67
2022/11/18 07:02:55;;;;;;;31.07;23.27;;;;;;;-148.82;100.00;60434.72;5006315;28;20207;-67
2022/11/18 07:05:23;;;;;;;37.50;23.90;;;;;;;-148.82;100.00;60434.72;5005868;28;20234;-67
2022/11/18 07:07:51;;;;;;;34.37;22.60;;;;;;;-148.82;100.00;60434.72;4956723;28;20785;-67
2022/11/18 07:10:20;;;;;;;33.07;23.73;;;;;;;-148.82;100.00;60434.72;4974022;28;20933;-68
2022/11/18 07:12:48;;;;;;;37.30;25.30;;;;;;;-148.82;100.00;60434.72;5006472;28;20461;-68
2022/11/18 07:15:16;;;;;;;34.87;24.43;;;;;;;-148.82;100.00;60434.72;4973765;28;20203;-68
2022/11/18 07:17:44;;;;;;;34.97;24.70;;;;;;;-148.82;100.00;60434.72;4979917;28;20211;-67
2022/11/18 07:20:14;;;;;;;34.57;23.57;;;;;;;-148.82;100.00;60434.72;5009773;28;20256;-68
2022/11/18 07:22:43;;;;;;;36.63;23.87;;;;;;;-148.82;100.00;60434.72;4962535;28;20212;-65
2022/11/18 07:25:11;;;;;;;29.90;21.93;;;;;;;-148.82;100.00;60434.72;5004115;28;20818;-68
2022/11/18 07:27:39;;;;;;;34.57;23.73;;;;;;;-148.82;100.00;60434.72;5005325;28;20594;-68
2022/11/18 07:30:08;;;;;;;33.33;22.83;;;;;;;-148.82;100.00;60434.72;5008841;28;20590;-67
2022/11/18 07:32:36;;;;;;;32.73;22.77;;;;;;;-148.82;100.00;60434.72;4980810;28;20210;-66
2022/11/18 07:35:06;;;;;;;37.70;23.70;;;;;;;-148.82;100.00;60434.72;5008301;28;20584;-66
2022/11/18 07:37:36;;;;;;;42.63;31.47;;;;;;;-148.82;100.00;60434.72;4988270;28;20710;-67
2022/11/18 07:40:05;;;;;;;63.37;48.57;;;;;;;-148.82;100.00;60434.72;4994802;28;20207;-69
2022/11/18 07:42:41;;;;;;;34.87;24.27;;;;;;;-148.82;100.00;60434.72;5011462;28;20206;-69
2022/11/18 07:45:11;;;;;;;29.97;21.83;;;;;;;-148.82;100.00;60434.72;5013114;28;20950;-69
2022/11/18 07:47:39;;;;;;;33.47;21.13;;;;;;;-148.82;100.00;60434.72;4984123;28;20282;-66
2022/11/18 07:50:08;;;;;;;28.30;21.13;;;;;;;-148.82;100.00;60434.72;5012843;28;20540;-69
2022/11/18 07:52:37;;;;;;;29.20;21.20;;;;;;;-148.82;100.00;60434.72;5010944;28;20525;-67
2022/11/18 07:55:06;;;;;;;28.17;19.67;;;;;;;-148.82;100.00;60434.72;4963399;28;20353;-66
2022/11/18 07:57:34;;;;;;;29.20;19.50;;;;;;;-148.82;100.00;60434.72;4951937;28;20641;-67
2022/11/18 08:00:04;;;;;;;30.27;21.90;;;;;;;-148.82;100.00;60434.72;4970052;28;20423;-69
2022/11/18 08:02:32;;;;;;;26.87;20.50;;;;;;;-148.82;100.00;60434.72;5011372;28;20211;-67
2022/11/18 08:05:03;;;;;;;24.30;18.07;;;;;;;-148.82;100.00;60434.72;4959658;28;20265;-65
2022/11/18 08:07:31;;;;;;;24.83;18.90;;;;;;;-148.82;100.00;60434.72;5011941;28;20321;-67
2022/11/18 08:10:02;;;;;;;25.73;19.20;;;;;;;-148.82;100.00;60434.72;5008497;28;20531;-67
2022/11/18 08:12:30;;;;;;;24.27;18.67;;;;;;;-148.82;100.00;60434.72;5012281;28;20625;-66
2022/11/18 08:14:58;;;;;;;19.90;16.60;;;;;;;-148.82;100.00;60434.72;4958061;28;20218;-68
2022/11/18 08:17:27;;;;;;;18.27;16.10;;;;;;;-148.82;100.00;60434.72;5010990;28;20261;-67
2022/11/18 08:19:55;;;;;;;22.53;17.53;;;;;;;-148.82;100.00;60434.72;4968208;28;20624;-65
2022/11/18 08:22:24;;;;;;;21.33;16.67;;;;;;;-148.82;100.00;60434.72;5006951;28;20684;-66
2022/11/18 08:24:52;;;;;;;17.77;15.87;;;;;;;-148.82;100.00;60434.72;5010072;28;20222;-68
2022/11/18 08:27:22;;;;;;;18.53;15.70;;;;;;;-148.82;100.00;60434.72;5010181;28;20443;-68
2022/11/18 08:29:50;;;;;;;16.93;14.80;;;;;;;-148.82;100.00;60434.72;4960341;28;20626;-67
2022/11/18 08:32:18;;;;;;;16.73;14.93;;;;;;;-148.82;100.00;60434.72;4977243;28;20638;-65
2022/11/18 08:34:46;;;;;;;18.03;15.17;;;;;;;-148.82;100.00;60434.72;5001865;28;20364;-67
2022/11/18 08:37:15;;;;;;;16.70;14.90;;;;;;;-148.82;100.00;60434.72;4942199;28;21243;-67
2022/11/18 08:39:43;;;;;;;17.30;15.10;;;;;;;-148.82;100.00;60434.72;5007338;28;20207;-67
2022/11/18 09:12:27;;;;;;;16.05;14.55;;;;;;;-148.82;100.00;60434.72;5759612;23;20475;-69
2022/11/18 09:14:55;;;;;;;12.90;11.63;;;;;;;-148.82;100.00;60434.72;4917721;28;20218;-67
2022/11/18 09:17:41;;;;;;;12.90;11.83;;;;;;;-148.82;100.00;60434.72;4904772;28;20229;-67
2022/11/18 09:20:10;;;;;;;12.70;11.43;;;;;;;-148.82;100.00;60434.72;4932710;28;20225;-69
2022/11/18 09:45:56;;;;;;;6.83;6.23;;;;;;;;;;5004845;27;21449;-67
2022/11/18 09:49:11;;;;;;;6.60;6.10;;;;;;;;;;5004205;27;20337;-66
2022/11/18 09:51:13;;;;;;;5.87;5.37;;;;;;;;;;4979591;28;20637;-69
2022/11/18 09:53:42;;;;;;;5.60;5.10;;;;;;;;;;4961668;28;20785;-67
2022/11/18 09:56:14;;;;;;;4.83;4.53;;;;;;;;;;4965320;28;20958;-68
2022/11/18 09:58:43;;;;;;;3.87;3.63;;;;;;;;;;4956191;28;23147;-67
2022/11/18 10:01:14;;;;;;;4.10;3.80;;;;;;;;;;5000231;28;20206;-68
2022/11/18 10:03:43;;;;;;;3.40;3.20;;;;;;;;;;4919783;28;20231;-67
2022/11/18 10:06:17;;;;;;;3.80;3.50;;;;;;;;;;4983688;28;20220;-68
2022/11/18 10:08:58;;;;;;;3.30;3.10;;;;;;;;;;4991238;28;20226;-68
2022/11/18 10:11:28;;;;;;;3.70;3.50;;;;;;;;;;4996050;28;20601;-68
2022/11/18 10:14:02;;;;;;;3.67;3.47;;;;;;;;;;4976286;28;20203;-68
2022/11/18 10:16:40;;;;;;;4.30;4.00;;;;;;;;;;4996217;28;20212;-69
2022/11/18 10:19:12;;;;;;;3.50;3.30;;;;;;;;;;4977920;28;20211;-68
2022/11/18 10:21:47;;;;;;;3.77;3.57;;;;;;;;;;4960010;28;20211;-68
2022/11/18 10:24:18;;;;;;;3.23;3.07;;;;;;;;;;4994293;28;21697;-68
2022/11/18 10:26:47;;;;;;;3.70;3.50;;;;;;;;;;4989995;28;21194;-68
2022/11/18 10:29:15;;;;;;;3.53;3.33;;;;;;;;;;4988710;28;20208;-67
2022/11/18 10:31:54;;;;;;;3.77;3.47;;;;;;;;;;4963579;28;20524;-68
2022/11/18 10:34:29;;;;;;;3.23;3.03;;;;;;;;;;4971445;28;20208;-67
2022/11/18 10:36:58;;;;;;;3.37;3.17;;;;;;;;;;4938894;28;20808;-68
2022/11/18 10:39:26;;;;;;;3.17;2.97;;;;;;;;;;4991260;28;20214;-69
2022/11/18 10:41:57;;;;;;;4.03;3.70;;;;;;;;;;4992398;28;20764;-69
2022/11/18 10:44:32;;;;;;;3.37;3.17;;;;;;;;;;4991359;28;20306;-69
2022/11/18 10:47:30;;;;;;;2.63;2.43;;;;;;;;;;4995175;28;20210;-67
2022/11/18 10:50:00;;;;;;;2.33;2.23;;;;;;;;;;4916461;28;20664;-68
2022/11/18 10:52:30;;;;;;;2.33;2.23;;;;;;;;;;4877488;28;20411;-67
2022/11/18 10:55:08;;;;;;;2.77;2.67;;;;;;;;;;4930642;28;21539;-68
2022/11/18 10:57:42;;;;;;;2.63;2.53;;;;;;;;;;4898631;28;20851;-69
2022/11/18 11:00:24;;;;;;;2.67;2.23;;;;;;;;;;4920238;28;20721;-69
2022/11/18 11:02:52;;;;;;;2.10;2.00;;;;;;;;;;4918060;28;20540;-67
2022/11/18 11:05:23;;;;;;;2.40;2.30;;;;;;;;;;4895227;28;21424;-68
2022/11/18 11:08:01;;;;;;;2.17;2.07;;;;;;;;;;4858087;28;21453;-70
2022/11/18 11:10:54;;;;;;;1.93;1.83;;;;;;;;;;4918727;28;21015;-69
2022/11/18 11:13:23;;;;;;;1.80;1.70;;;;;;;;;;4904140;28;20233;-70
2022/11/18 11:15:52;;;;;;;2.00;1.90;;;;;;;;;;4917882;28;20478;-71
2022/11/18 11:21:11;;;;;;;1.70;1.70;;;;;;;;;;4900816;28;20224;-70
2022/11/18 11:23:39;;;;;;;1.90;1.90;;;;;;;;;;4874038;28;21277;-70
2022/11/18 11:26:10;;;;;;;2.47;2.27;;;;;;;;;;4983910;28;20639;-70
2022/11/18 11:29:02;;;;;;;2.30;2.20;;;;;;;;;;4966399;28;20404;-70
2022/11/18 11:31:33;;;;;;;2.17;2.07;;;;;;;;;;4978459;28;20944;-70
2022/11/18 11:34:03;;;;;;;2.50;2.30;;;;;;;;;;4981732;28;20840;-71
2022/11/18 11:36:36;;;;;;;2.17;2.07;;;;;;;;;;4938468;28;20210;-70
2022/11/18 11:39:14;;;;;;;2.10;2.00;;;;;;;;;;4957463;28;20219;-69
2022/11/18 11:41:48;;;;;;;1.90;1.83;;;;;;;;;;4979591;28;20208;-70
2022/11/18 11:44:22;;;;;;;2.30;2.20;;;;;;;;;;4965287;28;20243;-70
2022/11/18 11:49:45;;;;;;;2.20;2.10;;;;;;;;;;4977147;28;20205;-70
2022/11/18 11:52:19;;;;;;;2.30;2.20;;;;;;;;;;4963769;28;20231;-69
2022/11/18 11:54:51;;;;;;;2.70;2.60;;;;;;;;;;4935829;28;20796;-71
2022/11/18 11:57:23;;;;;;;2.33;2.23;;;;;;;;;;4980315;28;20207;-71
2022/11/18 11:59:54;;;;;;;2.03;1.93;;;;;;;;;;4966099;28;20263;-71
2022/11/18 12:02:49;;;;;;;3.10;2.80;;;;;;;;;;4981307;28;20232;-71
2022/11/18 12:05:20;;;;;;;2.47;2.37;;;;;;;;;;4982476;28;20874;-72
2022/11/18 12:07:51;;;;;;;2.70;2.50;;;;;;;;;;4961619;28;20438;-70
2022/11/18 12:10:25;;;;;;;2.33;2.23;;;;;;;;;;4926396;28;20718;-69
2022/11/18 12:12:55;;;;;;;2.30;2.20;;;;;;;;;;4913994;28;20453;-70
2022/11/18 12:15:32;;;;;;;2.50;2.30;;;;;;;;;;4962949;28;20243;-68
2022/11/18 12:18:04;;;;;;;3.00;2.80;;;;;;;;;;4961339;28;20308;-70
2022/11/18 12:20:43;;;;;;;2.63;2.53;;;;;;;;;;4962975;28;20999;-70
2022/11/18 12:23:17;;;;;;;2.80;2.70;;;;;;;;;;4981986;28;21036;-67
2022/11/18 12:25:59;;;;;;;3.10;2.90;;;;;;;;;;4950810;28;20228;-67
2022/11/18 12:28:29;;;;;;;3.60;3.30;;;;;;;;;;4981743;28;20935;-70
2022/11/18 12:31:15;;;;;;;2.93;2.73;;;;;;;;;;4978983;28;20290;-70
2022/11/18 12:33:44;;;;;;;2.63;2.50;;;;;;;;;;4960403;28;20231;-72
2022/11/18 12:36:24;;;;;;;2.80;2.63;;;;;;;;;;4962874;28;20511;-72
2022/11/18 12:38:54;;;;;;;2.93;2.67;;;;;;;;;;4977820;28;20215;-70
2022/11/18 12:44:26;;;;;;;2.83;2.73;;;;;;;;;;4977735;28;20415;-72
2022/11/18 12:46:54;;;;;;;2.03;1.93;;;;;;;;;;4978661;28;20944;-72
2022/11/18 12:49:41;;;;;;;2.77;2.57;;;;;;;;;;4962930;28;20223;-71
2022/11/18 12:52:23;;;;;;;2.60;2.50;;;;;;;;;;4962638;28;20538;-69
2022/11/18 12:54:53;;;;;;;2.57;2.47;;;;;;;;;;4978645;28;20397;-71
2022/11/18 12:57:22;;;;;;;2.73;2.53;;;;;;;;;;4942337;28;20892;-69
2022/11/18 12:59:50;;;;;;;2.17;2.03;;;;;;;;;;4977176;28;20241;-68
2022/11/18 13:02:20;;;;;;;1.80;1.80;;;;;;;;;;4981057;28;20328;-72
2022/11/18 13:05:07;;;;;;;1.73;1.73;;;;;;;;;;4961791;28;20295;-71
2022/11/18 13:10:29;;;;;;;2.20;2.10;;;;;;;;;;4981249;28;20498;-71
2022/11/18 13:12:58;;;;;;;2.00;1.90;;;;;;;;;;4941537;28;20242;-72
2022/11/18 13:18:14;;;;;;;3.00;2.80;;;;;;;;;;4981082;28;22430;-72
2022/11/18 13:20:42;;;;;;;3.40;3.20;;;;;;;;;;4958253;28;20934;-69
2022/11/18 13:26:15;;;;;;;1.93;1.83;;;;;;;;;;4977223;28;20534;-73
2022/11/18 13:28:46;;;;;;;3.17;2.60;;;;;;;;;;4946093;28;20711;-73